createdAt,value
2022-09-05T00:00:11.543Z,100.00
2022-09-05T00:02:39.329Z,100.00
2022-09-05T00:05:15.398Z,100.00
2022-09-05T00:07:58.335Z,100.00
2022-09-05T00:10:26.562Z,100.00
2022-09-05T00:13:07.595Z,100.00
2022-09-05T00:15:34.434Z,100.00
2022-09-05T00:19:47.921Z,100.00
2022-09-05T00:24:18.888Z,100.00
2022-09-05T00:24:31.662Z,100.00
2022-09-05T00:26:19.788Z,100.00
2022-09-05T00:28:46.290Z,100.00
2022-09-05T00:31:54.683Z,100.00
2022-09-05T00:33:58.827Z,100.00
2022-09-05T00:36:25.380Z,100.00
2022-09-05T00:38:51.648Z,100.00
2022-09-05T00:41:18.025Z,100.00
2022-09-05T00:43:44.342Z,100.00
2022-09-05T00:46:10.700Z,100.00
2022-09-05T00:48:37.032Z,100.00
2022-09-05T00:51:03.327Z,100.00
2022-09-05T00:53:29.783Z,100.00
2022-09-05T00:55:59.010Z,100.00
2022-09-05T00:58:25.442Z,100.00
2022-09-05T01:00:51.930Z,100.00
2022-09-05T01:03:18.206Z,100.00
2022-09-05T01:05:44.559Z,100.00
2022-09-05T01:08:10.818Z,100.00
2022-09-05T01:10:37.227Z,100.00
2022-09-05T01:13:03.482Z,100.00
2022-09-05T01:15:32.429Z,100.00
2022-09-05T01:18:00.401Z,100.00
2022-09-05T01:20:26.899Z,100.00
2022-09-05T01:22:56.228Z,100.00
2022-09-05T01:25:24.929Z,100.00
2022-09-05T01:28:54.969Z,100.00
2022-09-05T01:30:37.503Z,100.00
2022-09-05T01:33:06.035Z,100.00
2022-09-05T01:35:32.669Z,100.00
2022-09-05T01:37:58.927Z,100.00
2022-09-05T01:40:25.444Z,100.00
2022-09-05T01:42:51.766Z,100.00
2022-09-05T01:45:18.018Z,100.00
2022-09-05T01:47:44.502Z,100.00
2022-09-05T01:50:10.782Z,100.00
2022-09-05T01:52:37.133Z,100.00
2022-09-05T01:55:13.990Z,100.00
2022-09-05T01:57:40.336Z,100.00
2022-09-05T02:00:06.620Z,100.00
2022-09-05T02:02:33.070Z,100.00
2022-09-05T02:04:59.560Z,100.00
2022-09-05T02:07:31.192Z,100.00
2022-09-05T02:10:07.306Z,100.00
2022-09-05T02:12:34.227Z,100.00
2022-09-05T02:15:00.476Z,100.00
2022-09-05T02:17:49.715Z,100.00
2022-09-05T02:20:13.204Z,100.00
2022-09-05T02:22:49.973Z,100.00
2022-09-05T02:26:00.689Z,100.00
2022-09-05T02:28:05.669Z,100.00
2022-09-05T02:30:32.522Z,100.00
2022-09-05T02:32:58.827Z,100.00
2022-09-05T02:35:25.126Z,100.00
2022-09-05T02:40:48.417Z,100.00
2022-09-05T02:45:08.709Z,100.00
2022-09-05T02:45:09.111Z,100.00
2022-09-05T02:46:10.447Z,100.00
2022-09-05T02:48:36.812Z,100.00
2022-09-05T02:57:20.258Z,100.00
2022-09-05T02:57:37.039Z,100.00
2022-09-05T02:57:38.561Z,100.00
2022-09-05T02:59:35.851Z,100.00
2022-09-05T03:02:08.439Z,100.00
2022-09-05T03:04:49.481Z,100.00
2022-09-05T03:07:17.337Z,100.00
2022-09-05T03:09:43.711Z,100.00
2022-09-05T03:12:29.287Z,100.00
2022-09-05T03:14:56.115Z,100.00
2022-09-05T03:17:22.441Z,100.00
2022-09-05T03:19:48.741Z,100.00
2022-09-05T03:22:15.105Z,100.00
2022-09-05T03:24:41.372Z,100.00
2022-09-05T03:27:22.327Z,100.00
2022-09-05T03:29:58.411Z,100.00
2022-09-05T03:32:25.376Z,100.00
2022-09-05T03:34:51.853Z,100.00
2022-09-05T03:37:18.138Z,100.00
2022-09-05T03:39:44.639Z,100.00
2022-09-05T03:42:14.808Z,100.00
2022-09-05T03:44:41.423Z,100.00
2022-09-05T03:47:07.858Z,100.00
2022-09-05T03:52:06.519Z,100.00
2022-09-05T03:57:07.616Z,100.00
2022-09-05T03:57:15.450Z,100.00
2022-09-05T03:57:53.363Z,100.00
2022-09-05T04:00:22.162Z,100.00
2022-09-05T04:08:05.749Z,100.00
2022-09-05T04:08:16.375Z,100.00
2022-09-05T04:08:34.328Z,100.00
2022-09-05T04:11:07.519Z,100.00
2022-09-05T04:13:34.088Z,100.00
2022-09-05T04:16:00.441Z,100.00
2022-09-05T04:18:33.424Z,100.00
2022-09-05T04:21:00.344Z,100.00
2022-09-05T04:23:27.422Z,100.00
2022-09-05T04:26:02.920Z,100.00
2022-09-05T04:28:39.935Z,100.00
2022-09-05T04:31:09.496Z,100.00
2022-09-05T04:33:36.884Z,100.00
2022-09-05T04:36:03.531Z,100.00
2022-09-05T04:38:44.207Z,100.00
2022-09-05T04:41:10.537Z,100.00
2022-09-05T04:43:36.972Z,100.00
2022-09-05T04:46:03.506Z,100.00
2022-09-05T04:48:29.836Z,100.00
2022-09-05T04:50:56.542Z,100.00
2022-09-05T04:53:24.732Z,100.00
2022-09-05T04:55:51.221Z,100.00
2022-09-05T04:58:17.802Z,100.00
2022-09-05T05:06:01.188Z,100.00
2022-09-05T05:06:09.428Z,100.00
2022-09-05T05:09:05.982Z,100.00
2022-09-05T05:17:55.060Z,100.00
2022-09-05T05:18:07.944Z,100.00
2022-09-05T05:18:08.799Z,100.00
2022-09-05T05:20:11.411Z,100.00
2022-09-05T05:22:37.884Z,100.00
2022-09-05T05:25:04.479Z,100.00
2022-09-05T05:27:30.935Z,100.00
2022-09-05T05:29:57.443Z,100.00
2022-09-05T05:32:28.165Z,100.00
2022-09-05T05:35:10.059Z,100.00
2022-09-05T05:37:36.382Z,100.00
2022-09-05T05:40:02.782Z,100.00
2022-09-05T05:42:29.124Z,100.00
2022-09-05T05:44:55.396Z,100.00
2022-09-05T05:47:31.746Z,100.00
2022-09-05T05:49:58.935Z,100.00
2022-09-05T05:52:25.227Z,100.00
2022-09-05T05:54:51.642Z,100.00
2022-09-05T05:57:35.944Z,100.00
2022-09-05T06:00:02.447Z,100.00
2022-09-05T06:02:28.863Z,100.00
2022-09-05T06:04:55.365Z,100.00
2022-09-05T06:07:21.692Z,100.00
2022-09-05T06:14:49.991Z,100.00
2022-09-05T06:14:56.532Z,100.00
2022-09-05T06:15:23.110Z,100.00
2022-09-05T06:17:50.206Z,100.00
2022-09-05T06:22:06.807Z,100.00
2022-09-05T06:23:02.998Z,100.00
2022-09-05T06:25:30.467Z,100.00
2022-09-05T06:28:17.502Z,100.00
2022-09-05T06:30:43.419Z,100.00
2022-09-05T06:33:10.086Z,100.00
2022-09-05T06:35:36.554Z,100.00
2022-09-05T06:38:02.883Z,100.00
2022-09-05T06:40:32.163Z,100.00
2022-09-05T06:42:58.668Z,100.00
2022-09-05T06:45:28.326Z,100.00
2022-09-05T06:47:57.022Z,100.00
2022-09-05T06:50:24.637Z,100.00
2022-09-05T06:52:54.285Z,100.00
2022-09-05T06:55:20.761Z,100.00
2022-09-05T06:57:47.060Z,100.00
2022-09-05T07:00:22.409Z,100.00
2022-09-05T07:02:58.793Z,100.00
2022-09-05T07:05:40.233Z,100.00
2022-09-05T07:08:18.425Z,100.00
2022-09-05T07:10:57.661Z,100.00
2022-09-05T07:13:42.756Z,100.00
2022-09-05T07:16:11.305Z,100.00
2022-09-05T07:18:37.594Z,100.00
2022-09-05T07:21:17.336Z,100.00
2022-09-05T07:23:51.405Z,100.00
2022-09-05T07:26:51.520Z,100.00
2022-09-05T07:29:17.501Z,100.00
2022-09-05T07:31:43.791Z,100.00
2022-09-05T07:34:20.432Z,100.00
2022-09-05T07:36:47.780Z,100.00
2022-09-05T07:39:28.364Z,100.00
2022-09-05T07:41:55.555Z,100.00
2022-09-05T07:44:22.138Z,100.00
2022-09-05T07:46:48.545Z,100.00
2022-09-05T07:49:14.780Z,100.00
2022-09-05T07:56:36.293Z,100.00
2022-09-05T07:56:52.992Z,100.00
2022-09-05T07:59:59.754Z,100.00
2022-09-05T08:02:27.133Z,100.00
2022-09-05T08:04:53.451Z,100.00
2022-09-05T08:07:49.387Z,100.00
2022-09-05T08:10:10.080Z,100.00
2022-09-05T08:13:02.715Z,100.00
2022-09-05T08:15:23.114Z,100.00
2022-09-05T08:17:50.183Z,100.00
2022-09-05T08:20:16.701Z,100.00
2022-09-05T08:22:43.007Z,100.00
2022-09-05T08:25:18.762Z,100.00
2022-09-05T08:27:45.210Z,100.00
2022-09-05T08:30:26.853Z,100.00
2022-09-05T08:32:54.097Z,100.00
2022-09-05T08:35:23.842Z,100.00
2022-09-05T08:37:50.296Z,100.00
2022-09-05T08:40:16.759Z,100.00
2022-09-05T08:42:44.040Z,100.00
2022-09-05T08:46:40.510Z,100.00
2022-09-05T08:48:11.672Z,100.00
2022-09-05T08:50:38.085Z,100.00
2022-09-05T08:53:04.316Z,100.00
2022-09-05T08:55:50.596Z,100.00
2022-09-05T08:58:16.892Z,100.00
2022-09-05T09:00:43.285Z,100.00
2022-09-05T09:03:16.657Z,100.00
2022-09-05T09:06:11.850Z,100.00
2022-09-05T09:08:29.361Z,100.00
2022-09-05T09:10:56.347Z,100.00
2022-09-05T09:13:22.692Z,100.00
2022-09-05T09:15:48.958Z,100.00
2022-09-05T09:18:15.258Z,100.00
2022-09-05T09:20:45.027Z,100.00
2022-09-05T09:23:29.800Z,100.00
2022-09-05T09:25:57.877Z,100.00
2022-09-05T09:28:50.651Z,100.00
2022-09-05T09:31:10.406Z,100.00
2022-09-05T09:33:36.818Z,100.00
2022-09-05T09:36:07.866Z,100.00
2022-09-05T09:38:34.720Z,100.00
2022-09-05T09:41:03.013Z,100.00
2022-09-05T09:43:29.551Z,100.00
2022-09-05T09:45:55.838Z,100.00
2022-09-05T09:48:22.206Z,100.00
2022-09-05T09:50:59.055Z,100.00
2022-09-05T09:53:26.093Z,100.00
2022-09-05T09:55:52.345Z,100.00
2022-09-05T09:58:18.642Z,100.00
2022-09-05T10:00:44.880Z,100.00
2022-09-05T10:06:00.302Z,100.00
2022-09-05T10:10:53.206Z,100.00
2022-09-05T10:11:07.994Z,100.00
2022-09-05T10:11:53.083Z,97.72
2022-09-05T10:14:33.820Z,98.64
2022-09-05T10:17:02.540Z,95.78
2022-09-05T10:25:18.770Z,97.34
2022-09-05T10:27:45.999Z,96.58
2022-09-05T10:30:12.283Z,93.75
2022-09-05T10:35:02.786Z,93.67
2022-09-05T10:35:25.368Z,93.69
2022-09-05T10:37:52.089Z,92.65
2022-09-05T10:40:18.355Z,92.00
2022-09-05T10:43:00.500Z,92.73
2022-09-05T10:45:36.375Z,89.58
2022-09-05T10:48:13.189Z,89.55
2022-09-05T10:50:40.268Z,88.83
2022-09-05T10:53:08.662Z,86.80
2022-09-05T10:55:34.910Z,86.11
2022-09-05T10:58:01.345Z,87.55
2022-09-05T11:02:21.117Z,86.78
2022-09-05T11:03:22.399Z,87.31
2022-09-05T11:05:49.407Z,84.70
2022-09-05T11:08:15.948Z,87.49
2022-09-05T11:10:42.423Z,87.25
2022-09-05T11:13:08.740Z,85.30
2022-09-05T11:15:35.036Z,84.42
2022-09-05T11:18:02.100Z,84.86
2022-09-05T11:20:35.533Z,85.13
2022-09-05T11:23:02.048Z,83.13
2022-09-05T11:25:40.856Z,81.61
2022-09-05T11:28:07.626Z,81.35
2022-09-05T11:30:38.103Z,80.64
2022-09-05T11:36:08.873Z,81.27
2022-09-05T11:39:53.052Z,82.87
2022-09-05T11:40:02.601Z,82.15
2022-09-05T11:41:25.158Z,82.21
2022-09-05T11:43:52.024Z,81.98
2022-09-05T11:46:34.895Z,82.30
2022-09-05T11:49:01.245Z,82.83
2022-09-05T11:51:33.596Z,80.11
2022-09-05T11:54:00.731Z,80.40
2022-09-05T11:56:28.750Z,80.73
2022-09-05T11:58:55.492Z,78.89
2022-09-05T12:01:42.227Z,78.78
2022-09-05T12:04:09.852Z,78.60
2022-09-05T12:06:39.514Z,79.83
2022-09-05T12:09:20.203Z,78.44
2022-09-05T12:11:49.729Z,76.67
2022-09-05T12:14:21.181Z,75.76
2022-09-05T12:16:51.879Z,77.52
2022-09-05T12:19:18.950Z,76.89
2022-09-05T12:21:45.896Z,75.16
2022-09-05T12:27:40.164Z,73.96
2022-09-05T12:29:46.830Z,75.17
2022-09-05T12:32:49.582Z,73.46
2022-09-05T12:36:09.947Z,72.12
2022-09-05T12:40:43.419Z,72.07
2022-09-05T12:41:35.012Z,71.74
2022-09-05T12:42:09.708Z,74.78
2022-09-05T12:44:31.188Z,70.76
2022-09-05T12:46:10.906Z,71.14
2022-09-05T12:48:38.470Z,70.64
2022-09-05T12:51:05.979Z,70.19
2022-09-05T12:53:32.281Z,70.70
2022-09-05T12:56:12.115Z,70.20
2022-09-05T13:02:55.215Z,69.82
2022-09-05T13:03:08.113Z,70.64
2022-09-05T13:04:19.556Z,69.03
2022-09-05T13:06:47.084Z,68.54
2022-09-05T13:09:13.425Z,69.12
2022-09-05T13:14:48.963Z,69.88
2022-09-05T13:14:57.187Z,68.40
2022-09-05T13:17:12.262Z,68.89
2022-09-05T13:19:38.509Z,67.16
2022-09-05T13:22:05.174Z,66.43
2022-09-05T13:24:31.626Z,65.46
2022-09-05T13:26:57.863Z,66.00
2022-09-05T13:29:24.160Z,65.50
2022-09-05T13:37:55.051Z,65.88
2022-09-05T13:38:17.619Z,63.38
2022-09-05T13:38:19.873Z,64.75
2022-09-05T13:40:09.801Z,62.28
2022-09-05T13:42:36.320Z,62.38
2022-09-05T13:45:04.698Z,62.37
2022-09-05T13:47:31.223Z,62.21
2022-09-05T13:50:00.136Z,62.80
2022-09-05T13:52:31.561Z,61.17
2022-09-05T13:54:57.820Z,60.17
2022-09-05T13:57:32.531Z,61.50
2022-09-05T13:59:59.230Z,59.68
2022-09-05T14:02:27.217Z,59.66
2022-09-05T14:05:14.837Z,58.31
2022-09-05T14:07:47.167Z,57.85
2022-09-05T14:10:13.409Z,57.03
2022-09-05T14:12:39.660Z,57.28
2022-09-05T14:15:09.388Z,56.89
2022-09-05T14:17:52.479Z,57.70
2022-09-05T14:20:19.019Z,57.56
2022-09-05T14:22:45.281Z,58.84
2022-09-05T14:25:11.506Z,59.12
2022-09-05T14:27:37.741Z,60.21
2022-09-05T14:30:12.802Z,61.15
2022-09-05T14:37:36.716Z,62.17
2022-09-05T14:37:53.016Z,61.86
2022-09-05T14:38:23.276Z,62.38
2022-09-05T14:40:49.801Z,62.56
2022-09-05T14:43:17.415Z,62.34
2022-09-05T14:45:53.179Z,62.43
2022-09-05T14:48:26.770Z,63.34
2022-09-05T14:50:53.148Z,63.88
2022-09-05T14:58:09.898Z,66.44
2022-09-05T15:02:43.485Z,66.94
2022-09-05T15:02:50.440Z,66.39
2022-09-05T15:04:42.433Z,67.38
2022-09-05T15:07:10.547Z,67.71
2022-09-05T15:12:18.698Z,67.58
2022-09-05T15:12:31.333Z,67.61
2022-09-05T15:15:04.809Z,66.94
2022-09-05T15:17:31.072Z,67.06
2022-09-05T15:20:05.915Z,67.27
2022-09-05T15:22:33.539Z,66.36
2022-09-05T15:25:16.656Z,65.70
2022-09-05T15:27:43.661Z,63.70
2022-09-05T15:30:09.888Z,63.70
2022-09-05T15:32:36.183Z,63.32
2022-09-05T15:35:02.426Z,62.13
2022-09-05T15:37:28.753Z,62.39
2022-09-05T15:39:55.023Z,63.03
2022-09-05T15:42:21.326Z,62.59
2022-09-05T15:45:08.809Z,62.84
2022-09-05T15:47:33.761Z,63.04
2022-09-05T15:49:59.964Z,62.82
2022-09-05T15:52:29.224Z,62.79
2022-09-05T15:54:55.734Z,62.50
2022-09-05T15:57:21.964Z,62.69
2022-09-05T15:59:48.183Z,63.01
2022-09-05T16:02:14.531Z,63.37
2022-09-05T16:10:31.285Z,63.08
2022-09-05T16:10:40.814Z,63.26
2022-09-05T16:10:49.542Z,63.51
2022-09-05T16:12:59.516Z,61.94
2022-09-05T16:19:13.728Z,61.90
2022-09-05T16:23:16.667Z,61.53
2022-09-05T16:23:32.267Z,61.70
2022-09-05T16:23:44.604Z,61.25
2022-09-05T16:26:11.053Z,61.72
2022-09-05T16:28:39.114Z,61.72
2022-09-05T16:31:05.346Z,61.08
2022-09-05T16:33:31.598Z,60.94
2022-09-05T16:35:57.833Z,61.73
2022-09-05T16:38:48.517Z,62.02
2022-09-05T16:41:10.959Z,62.52
2022-09-05T16:43:37.320Z,62.79
2022-09-05T16:46:03.572Z,63.23
2022-09-05T16:48:29.930Z,63.36
2022-09-05T16:50:56.265Z,63.77
2022-09-05T16:53:30.819Z,63.95
2022-09-05T16:55:57.382Z,64.72
2022-09-05T16:58:23.670Z,65.35
2022-09-05T17:00:49.924Z,65.68
2022-09-05T17:03:16.213Z,66.00
2022-09-05T17:05:55.264Z,66.82
2022-09-05T17:08:21.521Z,66.88
2022-09-05T17:10:57.384Z,66.96
2022-09-05T17:13:24.191Z,67.55
2022-09-05T17:15:52.186Z,68.31
2022-09-05T17:18:24.302Z,68.20
2022-09-05T17:20:52.300Z,68.34
2022-09-05T17:28:50.030Z,68.90
2022-09-05T17:29:27.749Z,70.64
2022-09-05T17:29:31.063Z,69.99
2022-09-05T17:34:23.576Z,72.27
2022-09-05T17:36:49.830Z,72.76
2022-09-05T17:39:16.049Z,73.23
2022-09-05T17:41:42.296Z,73.72
2022-09-05T17:44:08.512Z,74.22
2022-09-05T17:46:34.759Z,74.55
2022-09-05T17:49:18.523Z,74.72
2022-09-05T17:51:51.353Z,75.14
2022-09-05T17:54:18.130Z,75.79
2022-09-05T17:56:44.554Z,76.39
2022-09-05T17:59:10.779Z,76.62
2022-09-05T18:01:37.037Z,77.32
2022-09-05T18:04:17.193Z,77.46
2022-09-05T18:06:54.022Z,77.77
2022-09-05T18:09:30.934Z,78.25
2022-09-05T18:11:57.191Z,78.16
2022-09-05T18:14:25.329Z,78.56
2022-09-05T18:17:35.454Z,79.03
2022-09-05T18:19:38.916Z,79.54
2022-09-05T18:22:10.226Z,80.36
2022-09-05T18:24:37.542Z,81.00
2022-09-05T18:29:58.788Z,82.44
2022-09-05T18:32:25.537Z,82.99
2022-09-05T18:34:52.165Z,83.41
2022-09-05T18:37:23.101Z,84.00
2022-09-05T18:39:49.484Z,85.40
2022-09-05T18:42:33.567Z,86.06
2022-09-05T18:45:00.950Z,86.82
2022-09-05T18:47:33.400Z,87.54
2022-09-05T18:50:24.908Z,88.33
2022-09-05T18:52:46.544Z,88.56
2022-09-05T18:56:10.482Z,87.96
2022-09-05T18:57:59.225Z,88.54
2022-09-05T19:00:25.527Z,88.61
2022-09-05T19:03:10.515Z,90.00
2022-09-05T19:05:39.517Z,90.25
2022-09-05T19:08:05.807Z,92.08
2022-09-05T19:10:38.650Z,92.70
2022-09-05T19:13:04.964Z,94.20
2022-09-05T19:15:31.306Z,94.83
2022-09-05T19:18:03.613Z,95.74
2022-09-05T19:20:44.341Z,96.03
2022-09-05T19:23:13.134Z,96.65
2022-09-05T19:25:39.871Z,96.73
2022-09-05T19:36:49.281Z,96.21
2022-09-05T19:37:03.612Z,96.83
2022-09-05T19:37:06.832Z,97.63
2022-09-05T19:37:07.774Z,97.27
2022-09-05T19:42:40.028Z,97.41
2022-09-05T19:47:34.730Z,97.22
2022-09-05T19:47:37.698Z,98.03
2022-09-05T19:47:56.018Z,97.86
2022-09-05T19:50:15.978Z,97.52
2022-09-05T19:52:42.293Z,98.08
2022-09-05T19:55:08.688Z,97.76
2022-09-05T19:57:35.179Z,97.48
2022-09-05T20:00:01.843Z,97.70
2022-09-05T20:02:28.156Z,97.32
2022-09-05T20:04:54.611Z,97.26
2022-09-05T20:07:20.989Z,97.60
2022-09-05T20:09:47.421Z,97.32
2022-09-05T20:12:13.681Z,96.58
2022-09-05T20:14:40.002Z,97.00
2022-09-05T20:17:06.286Z,96.03
2022-09-05T20:19:32.646Z,96.21
2022-09-05T20:21:58.988Z,95.77
2022-09-05T20:24:25.263Z,95.96
2022-09-05T20:26:51.490Z,95.46
2022-09-05T20:29:17.763Z,95.30
2022-09-05T20:31:44.030Z,94.78
2022-09-05T20:34:16.489Z,95.12
2022-09-05T20:43:11.959Z,94.75
2022-09-05T20:43:27.109Z,95.83
2022-09-05T20:43:30.695Z,96.14
2022-09-05T20:45:15.974Z,95.57
2022-09-05T20:51:05.296Z,95.03
2022-09-05T20:54:16.438Z,94.09
2022-09-05T20:54:17.614Z,92.64
2022-09-05T20:56:01.147Z,91.58
2022-09-05T20:58:31.443Z,91.21
2022-09-05T21:01:20.309Z,90.27
2022-09-05T21:03:45.564Z,89.80
2022-09-05T21:06:12.017Z,89.41
2022-09-05T21:08:38.306Z,89.54
2022-09-05T21:11:04.525Z,89.85
2022-09-05T21:13:30.795Z,89.69
2022-09-05T21:15:57.083Z,89.90
2022-09-05T21:18:23.407Z,89.57
2022-09-05T21:20:56.340Z,89.78
2022-09-05T21:23:22.674Z,89.43
2022-09-05T21:25:49.054Z,89.24
2022-09-05T21:28:15.330Z,88.97
2022-09-05T21:30:41.587Z,89.52
2022-09-05T21:33:09.950Z,89.83
2022-09-05T21:35:42.999Z,90.15
2022-09-05T21:38:09.311Z,89.79
2022-09-05T21:40:35.607Z,90.04
2022-09-05T21:47:33.281Z,89.86
2022-09-05T21:47:48.166Z,89.60
2022-09-05T21:48:34.404Z,88.61
2022-09-05T21:51:00.722Z,89.15
2022-09-05T21:56:37.282Z,88.46
2022-09-05T21:59:20.378Z,88.19
2022-09-05T21:59:26.138Z,86.70
2022-09-05T22:01:52.581Z,85.77
2022-09-05T22:04:19.386Z,85.30
2022-09-05T22:06:45.629Z,83.78
2022-09-05T22:09:13.904Z,83.29
2022-09-05T22:11:40.616Z,81.85
2022-09-05T22:14:06.949Z,82.22
2022-09-05T22:16:33.199Z,81.43
2022-09-05T22:18:59.437Z,80.81
2022-09-05T22:21:33.323Z,80.55
2022-09-05T22:24:00.584Z,79.88
2022-09-05T22:26:26.832Z,80.18
2022-09-05T22:28:53.136Z,79.39
2022-09-05T22:31:19.466Z,79.41
2022-09-05T22:33:45.774Z,78.89
2022-09-05T22:36:17.274Z,78.55
2022-09-05T22:38:43.537Z,78.00
2022-09-05T22:41:09.808Z,78.54
2022-09-05T22:43:39.249Z,78.44
2022-09-05T22:46:05.550Z,77.76
2022-09-05T22:48:31.874Z,77.12
2022-09-05T22:50:58.126Z,77.05
2022-09-05T22:53:24.411Z,76.63
2022-09-05T22:55:50.659Z,76.63
2022-09-05T22:58:17.069Z,76.10
2022-09-05T23:00:43.302Z,76.05
2022-09-05T23:03:09.559Z,75.68
2022-09-05T23:05:35.805Z,76.05
2022-09-05T23:08:02.071Z,75.57
2022-09-05T23:10:28.314Z,76.29
2022-09-05T23:12:54.634Z,76.41
2022-09-05T23:15:20.911Z,75.96
2022-09-05T23:17:47.224Z,76.25
2022-09-05T23:20:13.456Z,75.62
2022-09-05T23:22:39.827Z,75.98
2022-09-05T23:25:06.073Z,76.45
2022-09-05T23:27:32.364Z,76.46
2022-09-05T23:29:58.649Z,76.57
2022-09-05T23:32:24.910Z,76.41
2022-09-05T23:34:51.136Z,76.15
2022-09-05T23:37:17.377Z,76.99
2022-09-05T23:39:43.650Z,76.97
2022-09-05T23:42:09.985Z,76.57
2022-09-05T23:44:36.216Z,76.88
2022-09-05T23:47:02.463Z,76.41
2022-09-05T23:49:28.760Z,76.35
2022-09-05T23:51:55.041Z,77.12
2022-09-05T23:54:21.316Z,77.33
2022-09-05T23:56:47.675Z,77.52
2022-09-05T23:59:13.932Z,77.50
